createdAt,value
2018-03-08T00:00:58.290Z,5.75
2018-03-08T00:01:58.014Z,5.74
2018-03-08T00:02:58.251Z,5.71
2018-03-08T00:03:58.501Z,5.71
2018-03-08T00:04:58.209Z,5.82
2018-03-08T00:05:58.191Z,5.75
2018-03-08T00:06:57.912Z,5.82
2018-03-08T00:07:58.151Z,5.82
2018-03-08T00:08:58.392Z,5.82
2018-03-08T00:09:58.113Z,5.73
2018-03-08T00:10:57.821Z,5.85
2018-03-08T00:11:58.064Z,5.75
2018-03-08T00:12:58.311Z,5.74
2018-03-08T00:13:58.287Z,5.73
2018-03-08T00:14:58.270Z,5.83
2018-03-08T00:15:58.245Z,5.77
2018-03-08T00:16:57.961Z,5.71
2018-03-08T00:17:58.207Z,5.74
2018-03-08T00:18:58.185Z,5.77
2018-03-08T00:19:58.157Z,5.71
2018-03-08T00:20:57.874Z,5.74
2018-03-08T00:21:57.861Z,5.73
2018-03-08T00:22:58.103Z,5.75
2018-03-08T00:23:57.546Z,5.73
2018-03-08T00:24:57.804Z,5.67
2018-03-08T00:25:58.044Z,5.75
2018-03-08T00:26:57.483Z,5.7
2018-03-08T00:27:58.007Z,5.78
2018-03-08T00:28:57.708Z,5.6
2018-03-08T00:29:57.684Z,5.7
2018-03-08T00:30:57.405Z,5.74
2018-03-08T00:31:57.910Z,5.71
2018-03-08T00:32:57.629Z,5.77
2018-03-08T00:33:57.601Z,5.77
2018-03-08T00:34:57.583Z,5.77
2018-03-08T00:35:57.827Z,5.78
2018-03-08T00:36:57.807Z,5.66
2018-03-08T00:37:57.519Z,5.77
2018-03-08T00:38:57.765Z,5.7
2018-03-08T00:39:57.212Z,5.67
2018-03-08T00:40:57.187Z,5.71
2018-03-08T00:41:57.432Z,5.68
2018-03-08T00:42:57.410Z,5.74
2018-03-08T00:43:57.396Z,5.78
2018-03-08T00:44:57.371Z,5.74
2018-03-08T00:45:57.623Z,5.7
2018-03-08T00:46:57.335Z,5.67
2018-03-08T00:47:57.046Z,5.77
2018-03-08T00:48:57.289Z,5.71
2018-03-08T00:49:57.001Z,5.71
2018-03-08T00:50:57.246Z,5.71
2018-03-08T00:51:56.960Z,5.67
2018-03-08T00:52:57.202Z,5.77
2018-03-08T00:53:57.186Z,5.6
2018-03-08T00:54:56.900Z,5.78
2018-03-08T00:55:57.146Z,5.57
2018-03-08T00:56:57.116Z,5.67
2018-03-08T00:57:57.099Z,5.71
2018-03-08T00:58:57.082Z,5.73
2018-03-08T00:59:56.799Z,5.82
2018-03-08T01:00:57.037Z,5.77
2018-03-08T01:01:57.276Z,5.73
2018-03-08T01:02:56.993Z,5.82
2018-03-08T01:03:56.975Z,5.77
2018-03-08T01:04:56.960Z,5.78
2018-03-08T01:05:57.196Z,5.81
2018-03-08T01:06:57.177Z,5.77
2018-03-08T01:07:57.149Z,5.73
2018-03-08T01:08:56.872Z,5.78
2018-03-08T01:09:56.850Z,5.78
2018-03-08T01:10:56.826Z,5.78
2018-03-08T01:11:56.539Z,5.71
2018-03-08T01:12:57.042Z,5.74
2018-03-08T01:13:57.029Z,5.82
2018-03-08T01:14:56.753Z,5.82
2018-03-08T01:15:56.717Z,5.74
2018-03-08T01:16:57.018Z,5.78
2018-03-08T01:17:56.947Z,5.77
2018-03-08T01:18:56.658Z,5.77
2018-03-08T01:19:56.633Z,5.78
2018-03-08T01:20:56.615Z,5.75
2018-03-08T01:21:56.597Z,5.75
2018-03-08T01:22:56.573Z,5.85
2018-03-08T01:23:56.285Z,5.74
2018-03-08T01:24:56.270Z,5.82
2018-03-08T01:25:56.780Z,5.82
2018-03-08T01:26:56.488Z,5.75
2018-03-08T01:27:56.202Z,5.78
2018-03-08T01:28:56.711Z,5.74
2018-03-08T01:29:56.428Z,5.74
2018-03-08T01:30:56.145Z,5.74
2018-03-08T01:32:15.594Z,5.78
2018-03-08T01:32:56.363Z,5.75
2018-03-08T01:33:56.607Z,5.73
2018-03-08T01:34:56.594Z,5.82
2018-03-08T01:35:56.500Z,5.83
2018-03-08T01:36:56.279Z,5.78
2018-03-08T01:37:56.258Z,5.77
2018-03-08T01:38:56.506Z,5.75
2018-03-08T01:39:56.251Z,5.78
2018-03-08T01:40:55.930Z,5.67
2018-03-08T01:41:56.174Z,5.74
2018-03-08T01:42:56.154Z,5.7
2018-03-08T01:43:56.134Z,5.75
2018-03-08T01:44:56.108Z,5.81
2018-03-08T01:45:56.090Z,5.77
2018-03-08T01:46:55.806Z,5.74
2018-03-08T01:47:56.318Z,5.74
2018-03-08T01:48:56.298Z,5.74
2018-03-08T01:49:56.010Z,5.74
2018-03-08T01:50:56.252Z,5.82
2018-03-08T01:51:55.701Z,5.77
2018-03-08T01:52:55.943Z,5.73
2018-03-08T01:53:56.191Z,5.78
2018-03-08T01:54:55.638Z,5.77
2018-03-08T01:55:55.882Z,5.71
2018-03-08T01:56:55.649Z,5.75
2018-03-08T01:57:55.843Z,5.78
2018-03-08T01:58:55.819Z,5.74
2018-03-08T01:59:55.528Z,5.78
2018-03-08T02:00:55.779Z,5.75
2018-03-08T02:01:55.765Z,5.68
2018-03-08T02:02:55.736Z,5.74
2018-03-08T02:03:55.987Z,5.73
2018-03-08T02:04:55.694Z,5.71
2018-03-08T02:05:55.939Z,5.71
2018-03-08T02:06:55.927Z,5.74
2018-03-08T02:07:55.631Z,5.71
2018-03-08T02:08:55.878Z,5.73
2018-03-08T02:09:55.324Z,5.74
2018-03-08T02:10:55.569Z,5.74
2018-03-08T02:11:55.551Z,5.75
2018-03-08T02:12:55.797Z,5.75
2018-03-08T02:13:55.237Z,5.71
2018-03-08T02:14:55.482Z,5.71
2018-03-08T02:15:55.470Z,5.81
2018-03-08T02:16:55.493Z,5.74
2018-03-08T02:17:55.421Z,5.67
2018-03-08T02:18:55.411Z,5.78
2018-03-08T02:19:55.655Z,5.77
2018-03-08T02:20:55.147Z,5.82
2018-03-08T02:21:55.078Z,5.78
2018-03-08T02:22:55.323Z,5.82
2018-03-08T02:23:55.300Z,5.81
2018-03-08T02:24:55.282Z,5.83
2018-03-08T02:25:55.260Z,5.89
2018-03-08T02:26:54.974Z,5.88
2018-03-08T02:27:55.221Z,5.88
2018-03-08T02:28:55.197Z,5.93
2018-03-08T02:29:54.908Z,5.95
2018-03-08T02:30:55.423Z,5.95
2018-03-08T02:31:55.138Z,5.98
2018-03-08T02:32:55.120Z,5.96
2018-03-08T02:33:55.091Z,5.93
2018-03-08T02:34:55.343Z,5.92
2018-03-08T02:35:55.071Z,5.98
2018-03-08T02:36:55.046Z,5.93
2018-03-08T02:37:54.753Z,5.92
2018-03-08T02:38:54.724Z,5.91
2018-03-08T02:39:54.966Z,6.01
2018-03-08T02:40:54.955Z,6
2018-03-08T02:41:54.929Z,5.98
2018-03-08T02:42:54.908Z,6.06
2018-03-08T02:43:54.897Z,6.09
2018-03-08T02:44:55.146Z,6.04
2018-03-08T02:45:55.116Z,6.09
2018-03-08T02:46:54.826Z,6.1
2018-03-08T02:47:54.804Z,6.1
2018-03-08T02:48:54.784Z,6.1
2018-03-08T02:49:54.784Z,6.1
2018-03-08T02:50:54.743Z,6.09
2018-03-08T02:51:54.729Z,6.18
2018-03-08T02:52:54.971Z,6.14
2018-03-08T02:53:54.683Z,6.11
2018-03-08T02:54:54.716Z,6.1
2018-03-08T02:55:54.904Z,6.07
2018-03-08T02:56:54.355Z,6.14
2018-03-08T02:57:54.604Z,6.07
2018-03-08T02:58:54.851Z,6.16
2018-03-08T02:59:54.559Z,6.11
2018-03-08T03:00:54.276Z,6.14
2018-03-08T03:01:54.781Z,6.09
2018-03-08T03:02:54.769Z,6.11
2018-03-08T03:03:54.211Z,6.1
2018-03-08T03:04:54.191Z,6.07
2018-03-08T03:05:54.437Z,6.07
2018-03-08T03:06:54.200Z,6.14
2018-03-08T03:07:54.661Z,6.11
2018-03-08T03:08:54.380Z,6.14
2018-03-08T03:09:54.809Z,6.16
2018-03-08T03:10:54.332Z,6.22
2018-03-08T03:11:54.045Z,6.13
2018-03-08T03:12:54.290Z,6.16
2018-03-08T03:13:54.271Z,6.18
2018-03-08T03:14:54.251Z,6.22
2018-03-08T03:15:54.490Z,6.26
2018-03-08T03:16:53.991Z,6.19
2018-03-08T03:17:54.190Z,6.22
2018-03-08T03:18:53.903Z,6.22
2018-03-08T03:19:53.887Z,6.21
2018-03-08T03:20:54.128Z,6.19
2018-03-08T03:21:54.378Z,6.19
2018-03-08T03:22:54.351Z,6.14
2018-03-08T03:23:54.062Z,6.11
2018-03-08T03:24:54.319Z,6.16
2018-03-08T03:25:54.300Z,6.16
2018-03-08T03:26:54.004Z,6.13
2018-03-08T03:27:53.988Z,6.18
2018-03-08T03:28:54.234Z,6.13
2018-03-08T03:29:54.208Z,6.11
2018-03-08T03:30:54.198Z,6.1
2018-03-08T03:31:53.639Z,6.14
2018-03-08T03:32:53.890Z,6.06
2018-03-08T03:33:54.131Z,6.14
2018-03-08T03:34:53.846Z,6.22
2018-03-08T03:35:54.292Z,6.07
2018-03-08T03:36:53.799Z,6.13
2018-03-08T03:37:54.053Z,6.1
2018-03-08T03:38:53.499Z,6.14
2018-03-08T03:39:53.477Z,6.18
2018-03-08T03:40:53.991Z,6.09
2018-03-08T03:41:53.438Z,6.11
2018-03-08T03:42:53.678Z,6.11
2018-03-08T03:43:53.394Z,6.09
2018-03-08T03:44:53.908Z,6.07
2018-03-08T03:45:53.620Z,6.1
2018-03-08T03:46:53.865Z,6.09
2018-03-08T03:47:53.841Z,6.07
2018-03-08T03:48:53.828Z,6.11
2018-03-08T03:49:53.537Z,6.11
2018-03-08T03:50:53.251Z,6.18
2018-03-08T03:51:53.495Z,6.1
2018-03-08T03:52:53.473Z,6.09
2018-03-08T03:53:53.192Z,6.14
2018-03-08T03:54:53.697Z,6.06
2018-03-08T03:55:53.456Z,6.13
2018-03-08T03:56:53.660Z,6.07
2018-03-08T03:57:53.649Z,6.09
2018-03-08T03:58:53.091Z,6.16
2018-03-08T03:59:53.336Z,6.14
2018-03-08T04:00:53.579Z,6.06
2018-03-08T04:01:53.562Z,6.14
2018-03-08T04:02:53.588Z,6.07
2018-03-08T04:03:52.993Z,6.07
2018-03-08T04:04:53.498Z,6.09
2018-03-08T04:05:53.476Z,6.09
2018-03-08T04:06:53.456Z,6.13
2018-03-08T04:07:53.175Z,6.04
2018-03-08T04:08:53.148Z,6.09
2018-03-08T04:09:52.864Z,6.07
2018-03-08T04:10:53.116Z,6.09
2018-03-08T04:11:52.824Z,6.11
2018-03-08T04:12:52.809Z,6.07
2018-03-08T04:13:53.316Z,6.09
2018-03-08T04:14:53.029Z,6.09
2018-03-08T04:15:52.746Z,6.06
2018-03-08T04:16:52.726Z,6.07
2018-03-08T04:17:53.234Z,6.03
2018-03-08T04:18:52.946Z,6.03
2018-03-08T04:19:53.245Z,6.01
2018-03-08T04:20:52.641Z,6.1
2018-03-08T04:21:52.885Z,6.01
2018-03-08T04:22:52.865Z,6.04
2018-03-08T04:23:53.114Z,5.93
2018-03-08T04:24:52.825Z,6.03
2018-03-08T04:25:53.072Z,6.07
2018-03-08T04:26:52.527Z,6
2018-03-08T04:27:52.761Z,5.98
2018-03-08T04:28:52.743Z,6.03
2018-03-08T04:29:52.721Z,6.07
2018-03-08T04:30:52.721Z,5.96
2018-03-08T04:31:52.420Z,5.95
2018-03-08T04:32:52.661Z,6.06
2018-03-08T04:33:52.377Z,5.96
2018-03-08T04:34:52.358Z,5.93
2018-03-08T04:35:52.599Z,6.07
2018-03-08T04:36:52.850Z,5.88
2018-03-08T04:37:52.833Z,5.92
2018-03-08T04:38:52.271Z,5.88
2018-03-08T04:39:52.518Z,5.91
2018-03-08T04:40:52.518Z,5.92
2018-03-08T04:41:52.492Z,6.04
2018-03-08T04:42:52.460Z,5.92
2018-03-08T04:43:52.701Z,5.95
2018-03-08T04:44:52.683Z,5.93
2018-03-08T04:45:52.139Z,5.89
2018-03-08T04:46:52.116Z,5.91
2018-03-08T04:47:52.624Z,5.98
2018-03-08T04:48:52.106Z,5.93
2018-03-08T04:49:52.049Z,5.91
2018-03-08T04:50:52.031Z,6
2018-03-08T04:51:52.007Z,5.88
2018-03-08T04:52:51.988Z,5.91
2018-03-08T04:53:52.498Z,6.01
2018-03-08T04:54:52.213Z,5.93
2018-03-08T04:55:52.191Z,5.98
2018-03-08T04:56:51.906Z,5.89
2018-03-08T04:57:52.153Z,5.92
2018-03-08T04:58:52.127Z,6.04
2018-03-08T04:59:52.114Z,5.96
2018-03-08T05:00:51.821Z,5.91
2018-03-08T05:01:51.801Z,5.91
2018-03-08T05:02:52.049Z,6.01
2018-03-08T05:03:52.028Z,6
2018-03-08T05:04:51.750Z,5.98
2018-03-08T05:05:51.724Z,5.89
2018-03-08T05:06:51.705Z,5.91
2018-03-08T05:07:52.212Z,5.93
2018-03-08T05:08:51.927Z,6
2018-03-08T05:09:51.902Z,5.95
2018-03-08T05:10:51.885Z,6.03
2018-03-08T05:11:51.598Z,5.95
2018-03-08T05:12:51.846Z,5.93
2018-03-08T05:13:51.553Z,6.03
2018-03-08T05:14:51.806Z,6.03
2018-03-08T05:15:51.778Z,5.92
2018-03-08T05:16:51.497Z,5.93
2018-03-08T05:17:52.005Z,5.98
2018-03-08T05:18:51.725Z,5.93
2018-03-08T05:19:51.963Z,5.96
2018-03-08T05:20:51.945Z,5.93
2018-03-08T05:21:51.924Z,5.93
2018-03-08T05:22:51.900Z,5.96
2018-03-08T05:23:51.354Z,5.93
2018-03-08T05:24:51.594Z,5.85
2018-03-08T05:25:51.836Z,5.95
2018-03-08T05:26:51.821Z,6
2018-03-08T05:27:51.798Z,5.92
2018-03-08T05:28:51.778Z,5.89
2018-03-08T05:29:51.756Z,5.93
2018-03-08T05:30:51.543Z,5.92
2018-03-08T05:31:51.717Z,5.88
2018-03-08T05:32:51.436Z,5.85
2018-03-08T05:33:51.143Z,5.93
2018-03-08T05:34:51.390Z,5.88
2018-03-08T05:35:51.717Z,5.77
2018-03-08T05:36:51.348Z,5.83
2018-03-08T05:37:51.335Z,5.86
2018-03-08T05:38:51.044Z,5.89
2018-03-08T05:39:51.025Z,5.81
2018-03-08T05:40:50.999Z,5.81
2018-03-08T05:41:51.246Z,5.85
2018-03-08T05:42:50.961Z,5.71
2018-03-08T05:43:51.209Z,5.85
2018-03-08T05:44:51.187Z,5.81
2018-03-08T05:45:51.175Z,5.82
2018-03-08T05:46:51.153Z,5.78
2018-03-08T05:47:51.120Z,5.77
2018-03-08T05:48:51.372Z,5.77
2018-03-08T05:49:50.818Z,5.71
2018-03-08T05:50:50.797Z,5.63
2018-03-08T05:51:51.307Z,5.64
2018-03-08T05:52:50.763Z,5.55
2018-03-08T05:53:51.001Z,5.57
2018-03-08T05:54:50.979Z,5.49
2018-03-08T05:55:51.225Z,5.43
2018-03-08T05:56:51.202Z,5.43
2018-03-08T05:57:51.188Z,5.28
2018-03-08T05:58:51.165Z,5.32
2018-03-08T05:59:50.612Z,5.27
2018-03-08T06:00:50.919Z,5.13
2018-03-08T06:01:51.100Z,5.22
2018-03-08T06:02:50.547Z,5.17
2018-03-08T06:03:50.790Z,5.16
2018-03-08T06:04:50.507Z,5.12
2018-03-08T06:05:51.019Z,5.12
2018-03-08T06:06:50.726Z,4.95
2018-03-08T06:07:50.450Z,4.96
2018-03-08T06:08:50.687Z,4.88
2018-03-08T06:09:50.932Z,4.89
2018-03-08T06:10:50.381Z,4.88
2018-03-08T06:11:50.629Z,4.86
2018-03-08T06:12:50.880Z,4.89
2018-03-08T06:13:50.850Z,4.77
2018-03-08T06:14:50.560Z,4.86
2018-03-08T06:15:50.543Z,4.84
2018-03-08T06:16:50.518Z,4.75
2018-03-08T06:17:50.492Z,4.72
2018-03-08T06:18:50.474Z,4.73
2018-03-08T06:19:50.188Z,4.69
2018-03-08T06:20:50.433Z,4.7
2018-03-08T06:21:50.677Z,4.77
2018-03-08T06:22:50.389Z,4.7
2018-03-08T06:23:50.367Z,4.69
2018-03-08T06:24:50.619Z,4.7
2018-03-08T06:25:50.323Z,4.7
2018-03-08T06:26:50.044Z,4.59
2018-03-08T06:27:50.295Z,4.64
2018-03-08T06:28:50.261Z,4.67
2018-03-08T06:29:49.977Z,4.57
2018-03-08T06:30:50.274Z,4.69
2018-03-08T06:31:50.194Z,4.62
2018-03-08T06:32:50.171Z,4.65
2018-03-08T06:33:50.432Z,4.62
2018-03-08T06:34:50.145Z,4.62
2018-03-08T06:35:49.847Z,4.62
2018-03-08T06:36:50.361Z,4.59
2018-03-08T06:37:50.337Z,4.64
2018-03-08T06:38:50.047Z,4.59
2018-03-08T06:39:50.028Z,4.58
2018-03-08T06:40:50.003Z,4.62
2018-03-08T06:41:49.984Z,4.72
2018-03-08T06:42:50.231Z,4.64
2018-03-08T06:43:49.674Z,4.69
2018-03-08T06:44:49.693Z,4.67
2018-03-08T06:45:49.909Z,4.7
2018-03-08T06:46:50.137Z,4.72
2018-03-08T06:47:49.863Z,4.73
2018-03-08T06:48:50.099Z,4.79
2018-03-08T06:49:50.080Z,4.67
2018-03-08T06:50:50.056Z,4.88
2018-03-08T06:51:49.768Z,4.77
2018-03-08T06:52:49.750Z,4.91
2018-03-08T06:53:49.996Z,4.88
2018-03-08T06:54:49.706Z,4.99
2018-03-08T06:55:49.681Z,4.96
2018-03-08T06:56:49.661Z,5.05
2018-03-08T06:57:49.380Z,5.07
2018-03-08T06:58:49.624Z,5.02
2018-03-08T06:59:49.335Z,5.09
2018-03-08T07:00:49.575Z,5.1
2018-03-08T07:01:49.562Z,5.12
2018-03-08T07:02:49.835Z,5.07
2018-03-08T07:03:49.512Z,5.13
2018-03-08T07:04:49.229Z,5.04
2018-03-08T07:05:49.731Z,5.13
2018-03-08T07:06:49.714Z,5.13
2018-03-08T07:07:49.163Z,5.23
2018-03-08T07:08:49.408Z,5.22
2018-03-08T07:09:49.736Z,5.31
2018-03-08T07:10:49.629Z,5.34
2018-03-08T07:11:49.610Z,5.34
2018-03-08T07:12:49.055Z,5.37
2018-03-08T07:13:49.570Z,5.34
2018-03-08T07:14:49.551Z,5.32
2018-03-08T07:15:49.655Z,5.46
2018-03-08T07:16:49.505Z,5.46
2018-03-08T07:17:49.219Z,5.48
2018-03-08T07:18:49.204Z,5.46
2018-03-08T07:19:49.451Z,5.53
2018-03-08T07:20:49.156Z,5.63
2018-03-08T07:21:48.874Z,5.7
2018-03-08T07:22:49.409Z,5.77
2018-03-08T07:23:49.103Z,5.75
2018-03-08T07:24:48.821Z,5.82
2018-03-08T07:25:49.058Z,5.82
2018-03-08T07:26:49.034Z,5.82
2018-03-08T07:27:49.282Z,5.78
2018-03-08T07:28:48.990Z,5.78
2018-03-08T07:29:48.967Z,5.75
2018-03-08T07:30:48.678Z,5.74
2018-03-08T07:31:48.663Z,5.73
2018-03-08T07:32:49.177Z,5.75
2018-03-08T07:33:48.886Z,5.81
2018-03-08T07:34:48.864Z,5.74
2018-03-08T07:35:48.844Z,5.73
2018-03-08T07:36:49.025Z,5.73
2018-03-08T07:37:48.801Z,5.7
2018-03-08T07:38:49.051Z,5.75
2018-03-08T07:39:48.761Z,5.77
2018-03-08T07:40:48.738Z,5.77
2018-03-08T07:41:48.455Z,5.81
2018-03-08T07:42:48.965Z,5.83
2018-03-08T07:43:48.942Z,5.78
2018-03-08T07:44:48.926Z,5.91
2018-03-08T07:45:48.906Z,5.89
2018-03-08T07:46:48.350Z,5.88
2018-03-08T07:47:48.600Z,6
2018-03-08T07:48:48.835Z,5.96
2018-03-08T07:49:48.828Z,6.1
2018-03-08T07:50:48.537Z,6.11
2018-03-08T07:51:48.599Z,6.13
2018-03-08T07:52:48.491Z,6.19
2018-03-08T07:53:48.482Z,6.29
2018-03-08T07:54:48.455Z,6.26
2018-03-08T07:55:48.432Z,6.35
2018-03-08T07:56:48.418Z,6.35
2018-03-08T07:57:48.660Z,6.36
2018-03-08T07:58:48.372Z,6.56
2018-03-08T07:59:48.623Z,6.54
2018-03-08T08:00:48.324Z,6.5
2018-03-08T08:01:48.313Z,6.63
2018-03-08T08:02:48.287Z,6.58
2018-03-08T08:03:48.268Z,6.58
2018-03-08T08:04:48.514Z,6.69
2018-03-08T08:05:48.490Z,6.62
2018-03-08T08:06:48.469Z,6.79
2018-03-08T08:07:48.189Z,6.73
2018-03-08T08:08:48.165Z,6.83
2018-03-08T08:09:47.879Z,6.79
2018-03-08T08:10:47.863Z,6.81
2018-03-08T08:11:48.370Z,6.95
2018-03-08T08:12:48.080Z,6.9
2018-03-08T08:13:48.065Z,7.02
2018-03-08T08:14:48.325Z,7.04
2018-03-08T08:15:47.756Z,7.04
2018-03-08T08:16:48.271Z,7.08
2018-03-08T08:17:47.986Z,6.97
2018-03-08T08:18:48.231Z,6.97
2018-03-08T08:19:47.683Z,7.12
2018-03-08T08:20:47.934Z,7.12
2018-03-08T08:21:48.172Z,7.2
2018-03-08T08:22:48.150Z,7.31
2018-03-08T08:23:47.868Z,7.26
2018-03-08T08:24:48.107Z,7.29
2018-03-08T08:25:47.559Z,7.31
2018-03-08T08:26:48.192Z,7.89
2018-03-08T08:27:47.788Z,8.72
2018-03-08T08:28:47.768Z,9.61
2018-03-08T08:29:48.028Z,10.22
2018-03-08T08:30:48.005Z,10.74
2018-03-08T08:31:47.725Z,11.32
2018-03-08T08:32:47.706Z,11.11
2018-03-08T08:33:47.944Z,11.67
2018-03-08T08:35:00.398Z,12.33
2018-03-08T08:35:47.646Z,12.45
2018-03-08T08:36:47.900Z,12.49
2018-03-08T08:37:47.403Z,12.23
2018-03-08T08:38:47.865Z,12.26
2018-03-08T08:39:47.590Z,11.99
2018-03-08T08:40:47.306Z,12.16
2018-03-08T08:41:47.289Z,11.97
2018-03-08T08:42:47.809Z,11.99
2018-03-08T08:43:47.585Z,12.09
2018-03-08T08:44:47.846Z,11.89
2018-03-08T08:45:47.777Z,11.41
2018-03-08T08:46:47.809Z,11.56
2018-03-08T08:47:47.475Z,11.03
2018-03-08T08:48:47.731Z,11.34
2018-03-08T08:49:47.447Z,11.19
2018-03-08T08:50:47.170Z,11.19
2018-03-08T08:51:47.429Z,11.35
2018-03-08T08:52:47.410Z,12.24
2018-03-08T08:53:47.409Z,12.6
2018-03-08T08:54:47.651Z,12.84
2018-03-08T08:55:47.379Z,13.14
2018-03-08T08:56:47.632Z,13.15
2018-03-08T08:57:47.350Z,12.88
2018-03-08T08:58:47.341Z,12.51
2018-03-08T08:59:47.326Z,11.61
2018-03-08T09:00:47.314Z,11.47
2018-03-08T09:01:47.302Z,11.01
2018-03-08T09:02:47.601Z,10.55
2018-03-08T09:03:47.016Z,10.32
2018-03-08T09:04:47.536Z,10.44
2018-03-08T09:05:47.536Z,10.21
2018-03-08T09:06:47.511Z,10.39
2018-03-08T09:07:47.225Z,10.52
2018-03-08T09:08:47.212Z,10.55
2018-03-08T09:09:47.467Z,10.43
2018-03-08T09:10:47.191Z,10.21
2018-03-08T09:11:47.176Z,10.51
2018-03-08T09:12:47.425Z,10.39
2018-03-08T09:13:47.160Z,10.47
2018-03-08T09:14:47.404Z,10.32
2018-03-08T09:15:47.143Z,10.51
2018-03-08T09:16:47.111Z,10.26
2018-03-08T09:17:47.103Z,10.37
2018-03-08T09:18:47.351Z,10.37
2018-03-08T09:19:46.810Z,10.24
2018-03-08T09:20:47.057Z,9.86
2018-03-08T09:21:47.304Z,10
2018-03-08T09:22:47.292Z,10.01
2018-03-08T09:23:46.751Z,9.86
2018-03-08T09:24:47.004Z,10
2018-03-08T09:25:46.984Z,9.88
2018-03-08T09:26:46.971Z,10.17
2018-03-08T09:27:47.017Z,10.06
2018-03-08T09:28:46.945Z,10.37
2018-03-08T09:29:46.662Z,10.46
2018-03-08T09:30:47.189Z,10.59
2018-03-08T09:31:46.901Z,10.83
2018-03-08T09:32:47.206Z,11.06
2018-03-08T09:33:46.891Z,11.09
2018-03-08T09:34:47.140Z,11.21
2018-03-08T09:35:47.112Z,10.89
2018-03-08T09:36:46.768Z,10.33
2018-03-08T09:37:47.091Z,10.22
2018-03-08T09:38:47.122Z,10.15
2018-03-08T09:39:46.789Z,10.25
2018-03-08T09:40:47.059Z,10.59
2018-03-08T09:41:46.763Z,10.47
2018-03-08T09:42:46.482Z,10.36
2018-03-08T09:43:46.475Z,10.17
2018-03-08T09:44:46.719Z,10.15
2018-03-08T09:45:46.968Z,10.19
2018-03-08T09:46:46.690Z,10.78
2018-03-08T09:47:46.679Z,10.99
2018-03-08T09:48:46.930Z,11.11
2018-03-08T09:49:46.383Z,11.11
2018-03-08T09:50:46.900Z,10.95
2018-03-08T09:51:46.737Z,10.88
2018-03-08T09:52:46.605Z,10.65
2018-03-08T09:53:46.594Z,10.36
2018-03-08T09:54:46.845Z,10.21
2018-03-08T09:55:46.299Z,10
2018-03-08T09:56:46.818Z,9.93
2018-03-08T09:57:46.801Z,9.61
2018-03-08T09:58:46.782Z,9.57
2018-03-08T09:59:46.773Z,9.42
2018-03-08T10:00:46.494Z,9.43
2018-03-08T10:01:46.742Z,9.46
2018-03-08T10:02:46.740Z,9.45
2018-03-08T10:03:46.710Z,9.58
2018-03-08T10:04:46.692Z,9.75
2018-03-08T10:05:46.413Z,9.7
2018-03-08T10:06:46.400Z,9.86
2018-03-08T10:07:46.121Z,9.73
2018-03-08T10:08:46.368Z,9.6
2018-03-08T10:09:46.617Z,9.53
2018-03-08T10:10:46.071Z,9.5
2018-03-08T10:11:46.057Z,9.52
2018-03-08T10:12:46.577Z,9.57
2018-03-08T10:13:46.556Z,9.45
2018-03-08T10:14:46.544Z,9.53
2018-03-08T10:15:45.992Z,9.58
2018-03-08T10:16:46.253Z,9.57
2018-03-08T10:17:46.253Z,9.57
2018-03-08T10:18:46.479Z,9.52
2018-03-08T10:19:45.933Z,9.48
2018-03-08T10:20:45.912Z,9.6
2018-03-08T10:21:49.644Z,9.67
2018-03-08T10:22:46.493Z,9.57
2018-03-08T10:23:46.132Z,9.7
2018-03-08T10:24:46.112Z,9.66
2018-03-08T10:25:46.108Z,9.73
2018-03-08T10:26:45.821Z,9.89
2018-03-08T10:27:46.334Z,9.85
2018-03-08T10:28:46.058Z,9.91
2018-03-08T10:29:45.768Z,9.86
2018-03-08T10:30:46.017Z,9.91
2018-03-08T10:31:46.264Z,9.97
2018-03-08T10:32:46.244Z,10.06
2018-03-08T10:33:46.286Z,10.15
2018-03-08T10:34:46.032Z,10.03
2018-03-08T10:35:45.668Z,10.22
2018-03-08T10:36:45.923Z,10.09
2018-03-08T10:37:45.906Z,9.94
2018-03-08T10:38:45.894Z,9.89
2018-03-08T10:39:45.627Z,9.73
2018-03-08T10:40:45.632Z,9.57
2018-03-08T10:41:48.859Z,9.43
2018-03-08T10:42:48.842Z,9.49
2018-03-08T10:43:45.808Z,9.42
2018-03-08T10:44:46.058Z,9.53
2018-03-08T10:45:45.514Z,9.57
2018-03-08T10:46:46.027Z,9.67
2018-03-08T10:47:46.011Z,9.67
2018-03-08T10:49:45.982Z,10
2018-03-08T10:50:45.970Z,10.14
2018-03-08T10:51:45.942Z,10.18
2018-03-08T10:52:45.925Z,10.21
2018-03-08T10:53:45.654Z,10.21
2018-03-08T10:54:45.369Z,10.01
2018-03-08T10:55:45.354Z,9.97
2018-03-08T10:56:45.601Z,10.01
2018-03-08T10:57:45.593Z,10.15
2018-03-08T10:58:45.576Z,10
2018-03-08T10:59:45.555Z,10.17
2018-03-08T11:00:45.543Z,10.18
2018-03-08T11:01:45.260Z,10.21
2018-03-08T11:02:45.772Z,10.19
2018-03-08T11:03:46.858Z,10.24
2018-03-08T11:04:45.740Z,10.17
2018-03-08T11:05:45.726Z,10.03
2018-03-08T11:06:45.180Z,10.06
2018-03-08T11:07:45.434Z,10.03
2018-03-08T11:08:45.683Z,10.03
2018-03-08T11:09:45.396Z,10.04
2018-03-08T11:10:45.381Z,9.94
2018-03-08T11:11:45.630Z,9.86
2018-03-08T11:12:45.361Z,9.78
2018-03-08T11:13:45.335Z,9.82
2018-03-08T11:14:45.582Z,9.79
2018-03-08T11:15:45.032Z,9.82
2018-03-08T11:16:45.282Z,9.81
2018-03-08T11:17:45.265Z,9.76
2018-03-08T11:18:45.252Z,9.81
2018-03-08T11:19:45.282Z,9.76
2018-03-08T11:20:44.950Z,9.82
2018-03-08T11:21:44.932Z,9.76
2018-03-08T11:22:45.183Z,9.82
2018-03-08T11:23:45.165Z,9.82
2018-03-08T11:24:45.149Z,9.81
2018-03-08T11:25:45.139Z,9.73
2018-03-08T11:26:44.858Z,9.73
2018-03-08T11:27:45.097Z,9.63
2018-03-08T11:28:45.086Z,9.61
2018-03-08T11:29:44.799Z,9.52
2018-03-08T11:30:45.048Z,9.56
2018-03-08T11:31:44.765Z,9.48
2018-03-08T11:32:44.752Z,9.53
2018-03-08T11:33:45.267Z,9.58
2018-03-08T11:34:44.713Z,9.56
2018-03-08T11:36:16.988Z,9.6
2018-03-08T11:36:45.220Z,9.66
2018-03-08T11:37:44.665Z,9.68
2018-03-08T11:38:44.910Z,9.78
2018-03-08T11:39:44.632Z,9.93
2018-03-08T11:40:45.863Z,9.96
2018-03-08T11:41:46.157Z,10.04
2018-03-08T11:42:45.105Z,10.15
2018-03-08T11:43:44.563Z,10.39
2018-03-08T11:44:44.556Z,10.58
2018-03-08T11:45:44.817Z,10.91
2018-03-08T11:46:44.789Z,10.98
2018-03-08T11:47:44.506Z,10.96
2018-03-08T11:48:45.093Z,11.01
2018-03-08T11:49:44.474Z,11.17
2018-03-08T11:50:44.728Z,11.16
2018-03-08T11:51:44.705Z,11.11
2018-03-08T11:52:44.694Z,11.07
2018-03-08T11:53:44.413Z,10.99
2018-03-08T11:54:44.479Z,10.89
2018-03-08T11:55:44.380Z,10.84
2018-03-08T11:56:44.638Z,10.73
2018-03-08T11:57:44.364Z,10.66
2018-03-08T11:58:44.345Z,10.52
2018-03-08T11:59:44.856Z,10.46
2018-03-08T12:00:44.844Z,10.52
2018-03-08T12:01:44.295Z,10.52
2018-03-08T12:02:44.819Z,10.56
2018-03-08T12:03:44.272Z,10.52
2018-03-08T12:04:44.254Z,10.47
2018-03-08T12:05:44.771Z,10.56
2018-03-08T12:06:44.228Z,10.68
2018-03-08T12:07:44.747Z,10.66
2018-03-08T12:08:44.193Z,10.63
2018-03-08T12:09:44.455Z,10.71
2018-03-08T12:10:44.445Z,10.73
2018-03-08T12:11:44.425Z,10.7
2018-03-08T12:12:44.674Z,10.6
2018-03-08T12:13:44.391Z,10.63
2018-03-08T12:14:44.644Z,10.62
2018-03-08T12:15:44.358Z,10.56
2018-03-08T12:16:44.082Z,10.56
2018-03-08T12:17:44.591Z,10.55
2018-03-08T12:18:44.583Z,10.4
2018-03-08T12:19:44.611Z,10.55
2018-03-08T12:20:44.280Z,10.42
2018-03-08T12:21:44.001Z,10.56
2018-03-08T12:22:44.256Z,10.47
2018-03-08T12:23:43.974Z,10.47
2018-03-08T12:24:43.956Z,10.53
2018-03-08T12:25:44.211Z,10.25
2018-03-08T12:26:44.455Z,10.33
2018-03-08T12:27:44.174Z,10.32
2018-03-08T12:28:44.425Z,10.42
2018-03-08T12:29:43.879Z,10.36
2018-03-08T12:30:44.394Z,10.33
2018-03-08T12:31:44.114Z,10.28
2018-03-08T12:32:44.099Z,10.24
2018-03-08T12:33:43.813Z,10.26
2018-03-08T12:34:44.064Z,10.22
2018-03-08T12:35:44.049Z,10.19
2018-03-08T12:36:43.766Z,10.19
2018-03-08T12:37:43.754Z,10.15
2018-03-08T12:38:43.997Z,10.19
2018-03-08T12:39:44.251Z,10.21
2018-03-08T12:40:43.702Z,10.19
2018-03-08T12:41:44.214Z,10.15
2018-03-08T12:42:43.937Z,10.1
2018-03-08T12:43:44.184Z,10.14
2018-03-08T12:44:44.164Z,10.18
2018-03-08T12:45:44.154Z,10.19
2018-03-08T12:46:43.866Z,10.18
2018-03-08T12:47:44.113Z,10.14
2018-03-08T12:48:43.958Z,10.19
2018-03-08T12:49:44.079Z,10.15
2018-03-08T12:50:44.060Z,10.18
2018-03-08T12:51:43.857Z,10.24
2018-03-08T12:52:43.498Z,10.14
2018-03-08T12:53:43.752Z,10.1
2018-03-08T12:54:43.468Z,10.03
2018-03-08T12:55:43.980Z,10.06
2018-03-08T12:56:43.968Z,10.01
2018-03-08T12:57:43.680Z,10
2018-03-08T12:58:43.401Z,10.01
2018-03-08T12:59:43.649Z,10
2018-03-08T13:00:43.899Z,10
2018-03-08T13:01:43.349Z,9.93
2018-03-08T13:02:43.858Z,9.94
2018-03-08T13:03:43.700Z,9.85
2018-03-08T13:04:43.568Z,9.71
2018-03-08T13:05:43.549Z,9.63
2018-03-08T13:06:43.793Z,9.56
2018-03-08T13:07:43.770Z,9.5
2018-03-08T13:08:43.763Z,9.57
2018-03-08T13:09:43.477Z,9.5
2018-03-08T13:10:43.456Z,9.48
2018-03-08T13:11:43.593Z,9.46
2018-03-08T13:12:43.693Z,9.31
2018-03-08T13:13:43.406Z,9.28
2018-03-08T13:14:43.118Z,9.18
2018-03-08T13:15:43.636Z,9.2
2018-03-08T13:16:43.354Z,9.04